AirNav   Everest Fuels
 
 1153 users online  

UT83 Thunder Ridge Airpark
Fruitland, Utah, USA

GOING TO FRUITLAND?


FAA INFORMATION EFFECTIVE 08 SEPTEMBER 2022

Location

FAA Identifier: UT83
Lat/Long: 40-15-28.1500N 110-51-31.0000W
40-15.469167N 110-51.516667W
40.2578194,-110.8586111
(estimated)
Elevation: 7050 ft. / 2149 m (estimated)
From city: 3 miles SE of FRUITLAND, UT
Time zone: UTC -6 (UTC -7 during Standard Time)
Zip code: 84051

Airport Operations

Airport use: Private use. Permission required prior to landing
Activation date: 05/2006
Control tower: no
ARTCC: SALT LAKE CITY CENTER
FSS: CEDAR CITY FLIGHT SERVICE STATION
Attendance: UNATNDD
Wind indicator: yes
Segmented circle: no

Nearby radio navigation aids

VOR radial/distance  VOR name  Freq  Var
MTUr267/34.2MYTON VOR/DME112.7014E
PUCr339/39.6CARBON VOR/DME115.5014E
PVUr071/39.6PROVO VOR/DME108.4015E

Airport Services

Runway Information

Runway 13/31

Dimensions: 4000 x 48 ft. / 1219 x 15 m
Surface: asphalt
RUNWAY 13  RUNWAY 31
Traffic pattern: leftleft
Displaced threshold: 175 ft.no

Airport Ownership and Management from official FAA records

Ownership: Privately-owned
Owner: THUNDER RIDGE AIRPARK, LLC
PO BOX 843
HEBER CITY, UT 84032
Phone 801-380-4188
Manager: TRACY LIVINGSTON
PO BOX 843
HEBER CITY, UT 84032
Phone 801-380-4188

Airport Operational Statistics

Aircraft based on the field: 50
Single engine airplanes: 50
    

Additional Remarks

WILDLIFE ON RY, RY 31 NOT RECOMMENDED FOR DEP, RY 13 NOT RECOMMENDED FOR LND DUE TO RISING TRRN.
OWNER DESIRES CHARTING.
FOR CD CTC SALT LAKE ARTCC AT 801-320-2568.

Instrument Procedures

There are no published instrument procedures at UT83.

Some nearby airports with instrument procedures:

U69 - Duchesne Municipal Airport (22 nm E)
KHCR - Heber Valley Airport (29 nm NW)
74V - Roosevelt Municipal Airport (37 nm E)
KSPK - Spanish Fork Municipal Airport/Woodhouse Field (38 nm W)
KPUC - Carbon County Regional Airport/Buck Davis Field (39 nm S)
 
Loc | Ops | Rwys | IFR | FBO | Links
Com | Nav | Svcs | Stats | Notes
Area around UT83 (Thunder Ridge Airpark)
 
Road maps at: MapQuest Bing Google
 
Aerial photo
WARNING: Photo may not be current or correct
Aerial photo of UT83 (Thunder Ridge Airpark)
Do you have a better or more recent aerial photo of Thunder Ridge Airpark that you would like to share? If so, please send us your photo.

 
Sectional chart

 
Airport distance calculator
Flying to Thunder Ridge Airpark? Find the distance to fly.

From to UT83

Sunrise and sunset
Times for 03-Oct-2022
 Local
(UTC-6)
 Zulu
(UTC)
Morning civil twilight06:5612:56
Sunrise07:2313:23
Sunset19:0201:02
Evening civil twilight19:2901:29

Current date and time
Zulu (UTC)  04-Oct-2022 00:23:18
Local (UTC-6)  03-Oct-2022 18:23:18
 
METAR
KHCR 
29nm NW 
032350Z AUTO 01005KT 10SM BKN095 20/00 A3016 RMK AO2
K74V 
37nm E 
032355Z AUTO 05006KT 10SM 19/07 A3020 RMK AO2
KPUC 
39nm S 
032353Z AUTO 00000KT 10SM FEW100 16/07 A3022 RMK AO2 SLP203 T01610072 10172 20139 56007
KPVU 
39nm W 
032356Z 33013KT 10SM CLR 22/05 A3014 RMK AO2 SLP169 T02220050 10239 20183 56007
TAF
KHCR 
29nm NW 
031720Z 0318/0418 VRB03KT P6SM SKC FM032100 23010G18KT P6SM SCT080 FM040000 02009KT P6SM SCT080 FM040400 VRB02KT P6SM SKC
NOTAMs
Click for the latest NOTAMs
NOTAMs are issued by the DoD/FAA and will open in a separate window not controlled by AirNav.

 

 
 

Would you like to see your business listed on this page?

 If your business provides an interesting product or service to pilots, flight crews, aircraft, or users of the Thunder Ridge Airpark, you should consider listing it here.  To start the listing process, click on the button below
 
Add a business
 

Other Pages about Thunder Ridge Airpark

www.thunderridgeairpark.com
 
Update a link
 
Copyright © AirNav, LLC. All rights reserved. Privacy Policy  Contact